createdAt,value
2023-05-05T00:06:53.411Z,97855.47
2023-05-05T00:16:55.530Z,97846.81
2023-05-05T00:26:57.674Z,97850.59
2023-05-05T00:36:59.917Z,97851.87
2023-05-05T00:47:02.259Z,97846.13
2023-05-05T00:57:04.625Z,97846.31
2023-05-05T01:07:34.404Z,97842.97
2023-05-05T01:17:42.399Z,97850.72
2023-05-05T01:28:13.864Z,97851.19
2023-05-05T01:38:23.627Z,97861.72
2023-05-05T01:48:26.704Z,97859.75
2023-05-05T01:58:30.382Z,97872.16
2023-05-05T02:08:33.224Z,97872.44
2023-05-05T02:18:36.519Z,97864.00
2023-05-05T02:29:08.055Z,97867.25
2023-05-05T02:39:14.804Z,97875.31
2023-05-05T02:49:16.994Z,97881.00
2023-05-05T02:59:28.123Z,97879.06
2023-05-05T03:09:37.090Z,97873.63
2023-05-05T03:19:43.602Z,97875.00
2023-05-05T03:29:45.891Z,97868.50
2023-05-05T03:39:48.104Z,97862.84
2023-05-05T03:49:50.422Z,97873.19
2023-05-05T03:59:52.963Z,97868.84
2023-05-05T04:09:55.215Z,97874.34
2023-05-05T04:19:57.622Z,97886.03
2023-05-05T04:29:59.816Z,97891.25
2023-05-05T04:40:01.988Z,97901.28
2023-05-05T04:50:04.402Z,97899.69
2023-05-05T05:00:08.096Z,97901.56
2023-05-05T05:10:11.149Z,97918.31
2023-05-05T05:20:13.640Z,97917.41
2023-05-05T05:30:16.210Z,97920.81
2023-05-05T05:40:18.936Z,97932.06
2023-05-05T05:50:21.612Z,97940.12
2023-05-05T06:00:24.219Z,97940.38
2023-05-05T06:10:28.258Z,97943.97
2023-05-05T06:20:30.970Z,97949.22
2023-05-05T06:30:33.491Z,97946.03
2023-05-05T06:40:36.224Z,97951.28
2023-05-05T06:50:38.725Z,97947.38
2023-05-05T07:00:43.825Z,97940.53
2023-05-05T07:10:47.631Z,97941.53
2023-05-05T07:20:50.124Z,97939.50
2023-05-05T07:30:55.044Z,97945.31
2023-05-05T07:40:57.909Z,97946.38
2023-05-05T07:51:00.346Z,97944.19
2023-05-05T08:01:03.583Z,97950.66
2023-05-05T08:11:07.148Z,97944.31
2023-05-05T08:21:10.229Z,97938.94
2023-05-05T08:31:12.779Z,97939.06
2023-05-05T08:41:17.847Z,97938.47
2023-05-05T08:51:21.138Z,97927.69
2023-05-05T09:01:24.204Z,97916.31
2023-05-05T09:11:26.557Z,97898.16
2023-05-05T09:21:29.866Z,97898.50
2023-05-05T09:31:32.858Z,97893.53
2023-05-05T09:41:39.656Z,97879.84
2023-05-05T09:51:43.632Z,97884.53
2023-05-05T10:01:46.618Z,97866.03
2023-05-05T10:11:50.229Z,97859.19
2023-05-05T10:21:54.666Z,97843.78
2023-05-05T10:31:59.379Z,97830.56
2023-05-05T10:42:05.211Z,97823.69
2023-05-05T10:52:07.894Z,97813.41
2023-05-05T11:02:42.525Z,97799.75
2023-05-05T11:12:50.944Z,97786.84
2023-05-05T11:23:05.526Z,97774.06
2023-05-05T11:33:27.217Z,97762.75
2023-05-05T11:43:29.692Z,97747.19
2023-05-05T11:53:32.206Z,97729.53
2023-05-05T12:03:39.353Z,97711.75
2023-05-05T12:13:42.986Z,97721.50
2023-05-05T12:23:45.930Z,97710.22
2023-05-05T12:33:48.953Z,97691.16
2023-05-05T12:44:01.570Z,97649.09
2023-05-05T12:54:05.596Z,97653.63
2023-05-05T13:04:09.322Z,97636.53
2023-05-05T13:14:12.667Z,97610.75
2023-05-05T13:24:25.907Z,97606.31
2023-05-05T13:34:33.725Z,97605.22
2023-05-05T13:44:36.313Z,97650.56
2023-05-05T13:54:41.756Z,97703.38
2023-05-05T14:04:45.145Z,97701.84
2023-05-05T14:14:47.921Z,97660.87
2023-05-05T14:24:52.130Z,97763.13
2023-05-05T14:34:55.949Z,97799.50
2023-05-05T14:44:58.715Z,97810.16
2023-05-05T14:55:01.157Z,97789.25
2023-05-05T15:05:03.913Z,97817.41
2023-05-05T15:15:13.086Z,97836.22
2023-05-05T15:25:16.316Z,97850.56
2023-05-05T15:35:18.951Z,97822.59
2023-05-05T15:45:21.503Z,97826.72
2023-05-05T15:55:25.006Z,97791.25
2023-05-05T16:05:27.498Z,97799.53
2023-05-05T16:15:30.126Z,97799.13
2023-05-05T16:25:32.556Z,97796.81
2023-05-05T16:35:35.241Z,97822.16
2023-05-05T16:45:37.645Z,97810.91
2023-05-05T16:55:40.265Z,97807.13
2023-05-05T17:05:44.378Z,97810.22
2023-05-05T17:15:47.650Z,97801.91
2023-05-05T17:25:50.249Z,97805.25
2023-05-05T17:35:52.703Z,97793.28
2023-05-05T17:45:55.318Z,97792.09
2023-05-05T17:55:58.348Z,97793.78
2023-05-05T18:06:01.928Z,97792.69
2023-05-05T18:16:05.830Z,97797.69
2023-05-05T18:26:09.322Z,97788.28
2023-05-05T18:36:12.583Z,97800.25
2023-05-05T18:46:15.341Z,97798.75
2023-05-05T18:56:18.075Z,97805.44
2023-05-05T19:06:20.732Z,97826.06
2023-05-05T19:16:23.399Z,97846.16
2023-05-05T19:26:27.612Z,97863.91
2023-05-05T19:36:32.349Z,97863.59
2023-05-05T19:46:35.368Z,97879.34
2023-05-05T19:56:38.976Z,97891.31
2023-05-05T20:06:42.057Z,97893.00
2023-05-05T20:16:44.770Z,97888.19
2023-05-05T20:26:47.890Z,97889.75
2023-05-05T20:36:50.464Z,97891.78
2023-05-05T20:46:54.171Z,97906.38
2023-05-05T20:56:58.772Z,97904.91
2023-05-05T21:07:01.910Z,97916.69
2023-05-05T21:17:04.707Z,97913.19
2023-05-05T21:27:07.927Z,97897.16
2023-05-05T21:37:12.541Z,97887.19
2023-05-05T21:47:15.622Z,97889.22
2023-05-05T21:57:18.798Z,97889.87
2023-05-05T22:07:21.839Z,97890.97
2023-05-05T22:17:24.699Z,97876.63
2023-05-05T22:27:27.685Z,97876.38
2023-05-05T22:37:30.740Z,97870.12
2023-05-05T22:47:34.054Z,97875.53
2023-05-05T22:57:36.871Z,97882.78
2023-05-05T23:07:39.599Z,97875.37
2023-05-05T23:17:42.450Z,97872.38
2023-05-05T23:27:45.698Z,97868.59
2023-05-05T23:37:48.334Z,97867.03
2023-05-05T23:47:50.937Z,97873.28
2023-05-05T23:57:53.686Z,97868.88
